createdAt,value
2022-09-13T00:00:10.549Z,71.00
2022-09-13T00:00:42.794Z,71.20
2022-09-13T00:01:15.612Z,71.68
2022-09-13T00:01:47.669Z,71.32
2022-09-13T00:02:19.410Z,72.40
2022-09-13T00:02:52.707Z,71.07
2022-09-13T00:03:24.737Z,70.70
2022-09-13T00:03:56.331Z,71.93
2022-09-13T00:04:28.916Z,71.63
2022-09-13T00:05:00.555Z,70.90
2022-09-13T00:05:32.146Z,71.20
2022-09-13T00:06:11.647Z,71.20
2022-09-13T00:06:43.260Z,71.28
2022-09-13T00:07:14.856Z,72.05
2022-09-13T00:07:47.452Z,71.45
2022-09-13T00:08:19.617Z,70.40
2022-09-13T00:08:51.327Z,71.60
2022-09-13T00:09:23.898Z,71.07
2022-09-13T00:09:55.484Z,71.10
2022-09-13T00:10:27.231Z,71.10
2022-09-13T00:10:59.796Z,71.35
2022-09-13T00:11:31.515Z,71.50
2022-09-13T00:12:03.247Z,71.63
2022-09-13T00:12:35.887Z,72.25
2022-09-13T00:13:08.655Z,71.68
2022-09-13T00:13:41.999Z,72.35
2022-09-13T00:14:14.563Z,71.55
2022-09-13T00:14:46.384Z,71.30
2022-09-13T00:15:18.458Z,71.03
2022-09-13T00:15:51.749Z,71.10
2022-09-13T00:16:24.888Z,72.07
2022-09-13T00:16:56.572Z,71.88
2022-09-13T00:17:29.451Z,71.22
2022-09-13T00:18:01.057Z,71.10
2022-09-13T00:18:33.612Z,71.10
2022-09-13T00:19:06.234Z,71.60
2022-09-13T00:19:37.885Z,70.53
2022-09-13T00:20:09.756Z,70.80
2022-09-13T00:20:41.381Z,71.13
2022-09-13T00:21:15.419Z,72.05
2022-09-13T00:21:47.091Z,71.18
2022-09-13T00:22:18.930Z,71.25
2022-09-13T00:22:51.596Z,71.95
2022-09-13T00:23:23.239Z,70.88
2022-09-13T00:23:55.590Z,71.25
2022-09-13T00:24:28.204Z,71.25
2022-09-13T00:24:59.821Z,70.03
2022-09-13T00:25:31.542Z,71.78
2022-09-13T00:26:05.412Z,70.93
2022-09-13T00:26:37.044Z,71.60
2022-09-13T00:27:08.802Z,71.68
2022-09-13T00:27:41.454Z,70.90
2022-09-13T00:28:13.021Z,71.45
2022-09-13T00:28:48.857Z,72.07
2022-09-13T00:29:21.558Z,71.47
2022-09-13T00:29:53.117Z,71.80
2022-09-13T00:30:24.723Z,70.50
2022-09-13T00:31:00.340Z,71.53
2022-09-13T00:31:32.113Z,70.95
2022-09-13T00:32:04.950Z,71.00
2022-09-13T00:32:36.773Z,71.57
2022-09-13T00:33:08.889Z,72.22
2022-09-13T00:33:41.594Z,71.22
2022-09-13T00:34:13.177Z,71.53
2022-09-13T00:34:44.832Z,71.20
2022-09-13T00:35:17.566Z,71.60
2022-09-13T00:35:49.182Z,71.93
2022-09-13T00:36:20.738Z,72.80
2022-09-13T00:36:53.445Z,72.25
2022-09-13T00:37:25.097Z,71.55
2022-09-13T00:37:58.874Z,71.22
2022-09-13T00:38:30.490Z,72.15
2022-09-13T00:39:03.079Z,71.15
2022-09-13T00:39:34.851Z,71.13
2022-09-13T00:40:07.532Z,72.40
2022-09-13T00:40:40.221Z,71.15
2022-09-13T00:41:13.521Z,71.45
2022-09-13T00:41:45.147Z,71.72
2022-09-13T00:42:17.749Z,72.57
2022-09-13T00:42:49.383Z,71.68
2022-09-13T00:43:22.375Z,72.05
2022-09-13T00:43:57.383Z,71.85
2022-09-13T00:44:50.385Z,71.70
2022-09-13T00:45:22.092Z,72.05
2022-09-13T00:45:54.766Z,71.30
2022-09-13T00:46:28.709Z,72.72
2022-09-13T00:47:00.953Z,72.15
2022-09-13T00:47:36.416Z,70.72
2022-09-13T00:48:08.729Z,70.93
2022-09-13T00:48:40.720Z,70.82
2022-09-13T00:49:14.994Z,71.30
2022-09-13T00:49:47.211Z,71.53
2022-09-13T00:50:20.353Z,70.85
2022-09-13T00:50:54.283Z,71.05
2022-09-13T00:51:26.377Z,71.25
2022-09-13T00:52:03.743Z,71.15
2022-09-13T00:52:36.380Z,71.88
2022-09-13T00:53:10.578Z,70.88
2022-09-13T00:53:43.795Z,71.47
2022-09-13T00:54:16.137Z,71.05
2022-09-13T00:54:50.473Z,70.97
2022-09-13T00:55:25.763Z,70.65
2022-09-13T00:55:58.701Z,71.63
2022-09-13T00:56:33.215Z,70.90
2022-09-13T00:57:05.409Z,71.25
2022-09-13T00:57:37.121Z,70.88
2022-09-13T00:58:10.153Z,70.95
2022-09-13T00:58:45.298Z,70.82
2022-09-13T00:59:22.524Z,70.80
2022-09-13T00:59:57.065Z,71.68
2022-09-13T01:00:29.707Z,71.00
2022-09-13T01:01:02.478Z,71.07
2022-09-13T01:01:37.829Z,70.13
2022-09-13T01:02:10.629Z,70.60
2022-09-13T01:02:45.153Z,70.70
2022-09-13T01:03:17.886Z,70.47
2022-09-13T01:03:50.843Z,70.75
2022-09-13T01:04:24.553Z,70.35
2022-09-13T01:04:56.442Z,70.00
2022-09-13T01:05:31.514Z,71.30
2022-09-13T01:06:05.164Z,70.30
2022-09-13T01:06:38.814Z,70.38
2022-09-13T01:07:12.383Z,71.72
2022-09-13T01:07:44.079Z,70.10
2022-09-13T01:08:22.984Z,71.03
2022-09-13T01:08:55.131Z,71.05
2022-09-13T01:09:27.263Z,71.03
2022-09-13T01:09:59.975Z,69.95
2022-09-13T01:10:31.790Z,70.53
2022-09-13T01:11:04.549Z,70.43
2022-09-13T01:11:41.909Z,71.05
2022-09-13T01:12:18.682Z,71.07
2022-09-13T01:12:53.489Z,70.93
2022-09-13T01:13:27.541Z,70.70
2022-09-13T01:13:59.283Z,69.82
2022-09-13T01:14:32.899Z,71.38
2022-09-13T01:15:06.379Z,70.23
2022-09-13T01:15:38.064Z,70.45
2022-09-13T01:16:09.822Z,69.70
2022-09-13T01:16:47.157Z,69.30
2022-09-13T01:17:19.755Z,70.13
2022-09-13T01:17:52.734Z,69.22
2022-09-13T01:18:25.440Z,70.40
2022-09-13T01:18:57.025Z,69.80
2022-09-13T01:19:28.622Z,69.25
2022-09-13T01:20:01.889Z,71.38
2022-09-13T01:20:49.113Z,70.07
2022-09-13T01:21:34.708Z,69.25
2022-09-13T01:22:22.223Z,70.15
2022-09-13T01:23:11.757Z,69.55
2022-09-13T01:23:57.780Z,69.90
2022-09-13T01:24:37.727Z,69.28
2022-09-13T01:25:28.217Z,70.25
2022-09-13T01:26:15.705Z,69.40
2022-09-13T01:27:00.237Z,69.47
2022-09-13T01:27:36.000Z,69.75
2022-09-13T01:28:23.881Z,70.60
2022-09-13T01:29:05.418Z,69.90
2022-09-13T01:29:50.331Z,69.72
2022-09-13T01:30:25.117Z,68.45
2022-09-13T01:30:58.741Z,69.38
2022-09-13T01:31:35.502Z,69.43
2022-09-13T01:32:11.778Z,69.30
2022-09-13T01:32:59.175Z,70.57
2022-09-13T01:33:51.276Z,69.53
2022-09-13T01:34:29.489Z,68.93
2022-09-13T01:35:06.714Z,68.35
2022-09-13T01:35:43.604Z,68.28
2022-09-13T01:36:34.439Z,68.78
2022-09-13T01:37:26.129Z,69.32
2022-09-13T01:38:00.137Z,69.57
2022-09-13T01:38:41.487Z,68.65
2022-09-13T01:39:14.887Z,68.80
2022-09-13T01:39:55.560Z,68.93
2022-09-13T01:40:37.117Z,69.00
2022-09-13T01:41:15.708Z,68.53
2022-09-13T01:42:00.293Z,68.75
2022-09-13T01:42:37.061Z,69.72
2022-09-13T01:43:16.576Z,68.65
2022-09-13T01:43:53.821Z,68.28
2022-09-13T01:44:30.071Z,68.95
2022-09-13T01:45:09.419Z,69.03
2022-09-13T01:45:49.507Z,68.82
2022-09-13T01:46:25.212Z,69.38
2022-09-13T01:47:02.259Z,69.15
2022-09-13T01:47:38.182Z,68.75
2022-09-13T01:48:16.256Z,68.55
2022-09-13T01:48:54.384Z,68.22
2022-09-13T01:49:31.874Z,68.97
2022-09-13T01:50:12.666Z,69.35
2022-09-13T01:50:46.204Z,68.50
2022-09-13T01:51:21.088Z,68.22
2022-09-13T01:51:59.046Z,69.00
2022-09-13T01:52:32.400Z,68.80
2022-09-13T01:53:08.460Z,68.45
2022-09-13T01:53:42.414Z,68.97
2022-09-13T01:54:17.220Z,67.82
2022-09-13T01:54:54.777Z,68.68
2022-09-13T01:55:30.755Z,68.55
2022-09-13T01:56:05.418Z,69.07
2022-09-13T01:56:39.752Z,69.22
2022-09-13T01:57:14.272Z,69.05
2022-09-13T01:57:49.288Z,68.47
2022-09-13T01:58:23.823Z,69.25
2022-09-13T01:58:56.778Z,68.50
2022-09-13T01:59:33.589Z,68.43
2022-09-13T02:00:08.506Z,68.78
2022-09-13T02:00:51.204Z,68.55
2022-09-13T02:01:24.596Z,67.80
2022-09-13T02:02:01.448Z,68.03
2022-09-13T02:02:35.860Z,68.05
2022-09-13T02:03:10.725Z,68.68
2022-09-13T02:03:45.972Z,68.30
2022-09-13T02:04:20.993Z,68.18
2022-09-13T02:04:55.059Z,68.00
2022-09-13T02:05:30.375Z,68.10
2022-09-13T02:06:05.441Z,68.10
2022-09-13T02:06:39.954Z,69.00
2022-09-13T02:07:14.668Z,68.00
2022-09-13T02:07:50.200Z,68.40
2022-09-13T02:08:24.984Z,68.07
2022-09-13T02:09:00.498Z,69.55
2022-09-13T02:09:34.445Z,68.47
2022-09-13T02:10:07.483Z,68.07
2022-09-13T02:10:42.749Z,68.15
2022-09-13T02:11:16.311Z,69.32
2022-09-13T02:11:50.292Z,68.35
2022-09-13T02:12:24.392Z,68.80
2022-09-13T02:12:57.932Z,68.32
2022-09-13T02:13:33.495Z,69.35
2022-09-13T02:14:08.074Z,68.80
2022-09-13T02:14:41.004Z,67.97
2022-09-13T02:15:15.089Z,68.28
2022-09-13T02:15:50.264Z,68.30
2022-09-13T02:16:26.636Z,68.68
2022-09-13T02:17:01.406Z,68.05
2022-09-13T02:17:37.608Z,68.03
2022-09-13T02:18:11.078Z,67.57
2022-09-13T02:18:43.983Z,68.85
2022-09-13T02:19:19.036Z,68.63
2022-09-13T02:19:53.998Z,68.18
2022-09-13T02:20:28.533Z,68.25
2022-09-13T02:21:02.438Z,68.15
2022-09-13T02:21:39.192Z,68.18
2022-09-13T02:22:13.599Z,68.63
2022-09-13T02:22:48.266Z,68.75
2022-09-13T02:23:23.808Z,68.10
2022-09-13T02:23:56.532Z,67.70
2022-09-13T02:24:29.781Z,67.60
2022-09-13T02:25:04.162Z,68.40
2022-09-13T02:25:37.186Z,68.57
2022-09-13T02:26:10.897Z,68.22
2022-09-13T02:26:45.621Z,68.68
2022-09-13T02:27:19.268Z,68.43
2022-09-13T02:27:52.643Z,67.22
2022-09-13T02:28:29.693Z,67.97
2022-09-13T02:29:03.781Z,68.75
2022-09-13T02:29:37.248Z,67.73
2022-09-13T02:30:11.235Z,67.85
2022-09-13T02:30:46.691Z,67.50
2022-09-13T02:31:24.107Z,68.95
2022-09-13T02:31:58.145Z,67.95
2022-09-13T02:32:32.721Z,67.80
2022-09-13T02:33:08.602Z,68.15
2022-09-13T02:33:42.497Z,68.22
2022-09-13T02:34:18.315Z,67.47
2022-09-13T02:34:54.070Z,68.47
2022-09-13T02:35:27.783Z,68.68
2022-09-13T02:36:01.670Z,67.88
2022-09-13T02:36:37.149Z,68.20
2022-09-13T02:37:09.827Z,68.20
2022-09-13T02:37:43.076Z,69.05
2022-09-13T02:38:18.569Z,67.93
2022-09-13T02:38:52.005Z,68.53
2022-09-13T02:39:24.961Z,68.75
2022-09-13T02:39:59.776Z,68.25
2022-09-13T02:40:34.435Z,68.53
2022-09-13T02:41:09.967Z,68.85
2022-09-13T02:41:45.609Z,68.63
2022-09-13T02:42:18.649Z,68.50
2022-09-13T02:42:52.332Z,68.47
2022-09-13T02:43:27.951Z,68.90
2022-09-13T02:44:03.180Z,68.55
2022-09-13T02:44:37.708Z,68.18
2022-09-13T02:45:11.703Z,69.30
2022-09-13T02:45:47.666Z,68.47
2022-09-13T02:46:29.929Z,68.70
2022-09-13T02:47:08.020Z,68.70
2022-09-13T02:47:44.516Z,68.55
2022-09-13T02:48:20.758Z,69.13
2022-09-13T02:48:58.102Z,69.00
2022-09-13T02:49:55.306Z,69.05
2022-09-13T02:50:35.517Z,69.05
2022-09-13T02:51:08.450Z,68.75
2022-09-13T02:51:46.772Z,69.47
2022-09-13T02:52:23.467Z,68.68
2022-09-13T02:53:00.276Z,69.15
2022-09-13T02:53:36.963Z,70.28
2022-09-13T02:54:15.320Z,69.45
2022-09-13T02:54:56.115Z,69.32
2022-09-13T02:55:31.050Z,69.38
2022-09-13T02:56:07.730Z,69.15
2022-09-13T02:56:42.431Z,69.05
2022-09-13T02:57:15.412Z,69.80
2022-09-13T02:57:54.167Z,69.07
2022-09-13T02:58:27.395Z,68.72
2022-09-13T02:59:03.764Z,70.03
2022-09-13T02:59:36.814Z,68.55
2022-09-13T03:00:09.372Z,69.03
2022-09-13T03:00:41.382Z,69.40
2022-09-13T03:01:13.716Z,69.68
2022-09-13T03:01:48.798Z,69.57
2022-09-13T03:02:22.860Z,69.32
2022-09-13T03:02:56.294Z,70.30
2022-09-13T03:03:28.901Z,69.47
2022-09-13T03:04:00.591Z,69.97
2022-09-13T03:04:32.876Z,68.97
2022-09-13T03:05:05.680Z,69.03
2022-09-13T03:05:37.326Z,69.50
2022-09-13T03:06:08.954Z,69.97
2022-09-13T03:06:41.904Z,69.07
2022-09-13T03:07:14.222Z,69.07
2022-09-13T03:07:46.184Z,69.25
2022-09-13T03:08:19.398Z,69.38
2022-09-13T03:08:51.072Z,69.28
2022-09-13T03:09:23.594Z,69.88
2022-09-13T03:09:57.491Z,69.82
2022-09-13T03:10:31.614Z,69.68
2022-09-13T03:11:10.750Z,69.15
2022-09-13T03:11:54.401Z,69.17
2022-09-13T03:12:34.726Z,69.40
2022-09-13T03:13:14.698Z,69.37
2022-09-13T03:13:55.730Z,69.38
2022-09-13T03:14:34.519Z,70.35
2022-09-13T03:15:10.612Z,69.50
2022-09-13T03:15:50.908Z,69.35
2022-09-13T03:16:30.699Z,70.15
2022-09-13T03:17:11.631Z,69.55
2022-09-13T03:17:50.482Z,69.53
2022-09-13T03:18:30.014Z,70.13
2022-09-13T03:19:09.521Z,69.97
2022-09-13T03:19:54.342Z,69.93
2022-09-13T03:20:31.021Z,69.03
2022-09-13T03:21:08.074Z,69.80
2022-09-13T03:21:48.852Z,69.10
2022-09-13T03:22:26.986Z,69.20
2022-09-13T03:23:05.693Z,70.32
2022-09-13T03:23:46.548Z,69.07
2022-09-13T03:24:19.982Z,69.20
2022-09-13T03:24:55.737Z,68.85
2022-09-13T03:25:32.452Z,69.20
2022-09-13T03:26:13.451Z,69.00
2022-09-13T03:26:49.682Z,69.68
2022-09-13T03:27:31.664Z,69.40
2022-09-13T03:28:07.966Z,70.00
2022-09-13T03:28:44.032Z,68.80
2022-09-13T03:29:27.222Z,68.75
2022-09-13T03:30:02.377Z,69.10
2022-09-13T03:30:35.756Z,69.00
2022-09-13T03:31:09.006Z,68.63
2022-09-13T03:31:47.117Z,69.30
2022-09-13T03:32:24.951Z,68.72
2022-09-13T03:33:00.413Z,68.70
2022-09-13T03:33:37.019Z,68.65
2022-09-13T03:34:10.792Z,68.50
2022-09-13T03:34:48.087Z,67.85
2022-09-13T03:35:25.217Z,66.72
2022-09-13T03:36:02.132Z,68.10
2022-09-13T03:36:36.415Z,67.05
2022-09-13T03:37:10.841Z,65.75
2022-09-13T03:37:46.473Z,65.90
2022-09-13T03:38:20.932Z,66.10
2022-09-13T03:38:55.379Z,65.97
2022-09-13T03:39:31.238Z,65.93
2022-09-13T03:40:06.747Z,65.97
2022-09-13T03:40:42.169Z,65.65
2022-09-13T03:41:15.773Z,66.50
2022-09-13T03:41:51.060Z,65.70
2022-09-13T03:42:24.385Z,65.45
2022-09-13T03:43:00.018Z,65.90
2022-09-13T03:43:36.704Z,66.70
2022-09-13T03:44:10.282Z,65.95
2022-09-13T03:44:44.550Z,65.80
2022-09-13T03:45:18.792Z,66.05
2022-09-13T03:45:52.356Z,65.30
2022-09-13T03:46:26.463Z,65.97
2022-09-13T03:47:00.452Z,65.05
2022-09-13T03:47:36.835Z,65.78
2022-09-13T03:48:09.573Z,65.45
2022-09-13T03:48:42.709Z,65.70
2022-09-13T03:49:16.678Z,65.72
2022-09-13T03:49:49.042Z,65.75
2022-09-13T03:50:22.036Z,66.25
2022-09-13T03:50:55.663Z,65.18
2022-09-13T03:51:27.948Z,65.43
2022-09-13T03:52:00.406Z,66.63
2022-09-13T03:52:32.202Z,65.38
2022-09-13T03:53:07.347Z,66.63
2022-09-13T03:53:40.251Z,65.60
2022-09-13T03:54:14.746Z,65.45
2022-09-13T03:54:47.356Z,66.50
2022-09-13T03:55:20.384Z,66.43
2022-09-13T03:55:52.267Z,66.22
2022-09-13T03:56:23.856Z,66.00
2022-09-13T03:57:09.714Z,65.68
2022-09-13T03:57:41.492Z,66.25
2022-09-13T03:58:13.992Z,65.40
2022-09-13T03:58:47.125Z,65.63
2022-09-13T03:59:20.502Z,65.75
2022-09-13T03:59:53.410Z,66.00
2022-09-13T04:00:26.228Z,65.78
2022-09-13T04:00:58.105Z,65.68
2022-09-13T04:01:30.015Z,65.18
2022-09-13T04:02:02.735Z,64.90
2022-09-13T04:02:35.883Z,65.68
2022-09-13T04:03:07.616Z,65.10
2022-09-13T04:03:40.614Z,65.97
2022-09-13T04:04:12.267Z,65.57
2022-09-13T04:04:44.449Z,65.97
2022-09-13T04:05:16.066Z,66.70
2022-09-13T04:05:48.718Z,65.68
2022-09-13T04:06:20.293Z,65.60
2022-09-13T04:06:52.320Z,65.38
2022-09-13T04:07:24.985Z,65.72
2022-09-13T04:07:57.592Z,65.47
2022-09-13T04:08:29.286Z,64.80
2022-09-13T04:09:01.752Z,65.60
2022-09-13T04:09:34.357Z,65.85
2022-09-13T04:10:08.017Z,65.10
2022-09-13T04:10:42.286Z,65.13
2022-09-13T04:11:15.762Z,64.70
2022-09-13T04:11:47.364Z,65.05
2022-09-13T04:12:19.088Z,65.45
2022-09-13T04:12:52.552Z,66.05
2022-09-13T04:13:24.341Z,65.13
2022-09-13T04:13:55.962Z,64.75
2022-09-13T04:14:28.559Z,64.78
2022-09-13T04:15:00.366Z,65.30
2022-09-13T04:15:32.012Z,65.20
2022-09-13T04:16:05.198Z,64.53
2022-09-13T04:16:36.889Z,64.43
2022-09-13T04:17:09.042Z,64.70
2022-09-13T04:17:43.009Z,64.40
2022-09-13T04:18:14.589Z,64.63
2022-09-13T04:18:46.270Z,65.33
2022-09-13T04:19:18.847Z,64.65
2022-09-13T04:19:50.475Z,64.68
2022-09-13T04:20:23.136Z,64.53
2022-09-13T04:20:55.230Z,65.15
2022-09-13T04:21:27.291Z,64.90
2022-09-13T04:22:00.507Z,64.20
2022-09-13T04:22:32.545Z,64.65
2022-09-13T04:23:04.882Z,64.63
2022-09-13T04:23:38.348Z,64.07
2022-09-13T04:24:09.975Z,64.63
2022-09-13T04:24:43.275Z,64.70
2022-09-13T04:25:16.105Z,65.00
2022-09-13T04:25:47.866Z,63.83
2022-09-13T04:26:19.490Z,65.75
2022-09-13T04:26:53.224Z,64.13
2022-09-13T04:27:25.675Z,64.25
2022-09-13T04:27:58.178Z,63.75
2022-09-13T04:28:30.878Z,63.83
2022-09-13T04:29:02.439Z,63.88
2022-09-13T04:29:34.217Z,64.13
2022-09-13T04:30:07.463Z,63.90
2022-09-13T04:30:42.637Z,64.50
2022-09-13T04:31:14.559Z,64.30
2022-09-13T04:31:47.216Z,64.47
2022-09-13T04:32:18.953Z,63.95
2022-09-13T04:32:52.024Z,63.78
2022-09-13T04:33:25.063Z,64.47
2022-09-13T04:33:56.680Z,64.18
2022-09-13T04:34:28.281Z,63.65
2022-09-13T04:35:00.863Z,63.78
2022-09-13T04:35:32.464Z,64.28
2022-09-13T04:36:04.267Z,63.90
2022-09-13T04:36:37.107Z,64.70
2022-09-13T04:37:09.220Z,63.28
2022-09-13T04:37:41.143Z,63.70
2022-09-13T04:38:13.711Z,63.95
2022-09-13T04:38:46.713Z,63.95
2022-09-13T04:39:18.338Z,64.05
2022-09-13T04:39:50.087Z,63.75
2022-09-13T04:40:23.042Z,63.72
2022-09-13T04:40:55.055Z,64.30
2022-09-13T04:41:26.698Z,64.03
2022-09-13T04:41:59.531Z,63.90
2022-09-13T04:42:31.763Z,63.35
2022-09-13T04:43:04.043Z,64.40
2022-09-13T04:43:36.716Z,64.15
2022-09-13T04:44:08.459Z,63.67
2022-09-13T04:44:40.237Z,63.70
2022-09-13T04:45:12.929Z,63.75
2022-09-13T04:45:44.546Z,64.30
2022-09-13T04:46:16.514Z,63.88
2022-09-13T04:46:49.627Z,63.85
2022-09-13T04:47:21.802Z,64.57
2022-09-13T04:47:56.024Z,64.05
2022-09-13T04:48:28.668Z,63.85
2022-09-13T04:49:00.792Z,64.40
2022-09-13T04:49:32.473Z,64.47
2022-09-13T04:50:05.278Z,64.07
2022-09-13T04:50:36.850Z,64.72
2022-09-13T04:51:08.486Z,63.70
2022-09-13T04:51:41.213Z,64.00
2022-09-13T04:52:12.881Z,63.88
2022-09-13T04:52:44.507Z,63.95
2022-09-13T04:53:17.855Z,64.20
2022-09-13T04:53:52.713Z,64.03
2022-09-13T04:54:24.427Z,63.83
2022-09-13T04:55:00.295Z,64.28
2022-09-13T04:55:31.893Z,63.95
2022-09-13T04:56:03.853Z,63.88
2022-09-13T04:56:36.454Z,64.10
2022-09-13T04:57:08.505Z,64.88
2022-09-13T04:57:40.348Z,63.92
2022-09-13T04:58:12.983Z,64.15
2022-09-13T04:58:44.583Z,64.38
2022-09-13T04:59:16.557Z,64.50
2022-09-13T04:59:49.169Z,63.80
2022-09-13T05:00:20.967Z,64.53
2022-09-13T05:00:56.711Z,64.20
2022-09-13T05:01:28.422Z,64.55
2022-09-13T05:02:01.110Z,64.05
2022-09-13T05:02:33.031Z,64.00
2022-09-13T05:03:06.033Z,64.53
2022-09-13T05:03:38.930Z,63.80
2022-09-13T05:04:10.557Z,64.22
2022-09-13T05:04:42.305Z,64.20
2022-09-13T05:05:15.059Z,64.25
2022-09-13T05:05:46.749Z,64.05
2022-09-13T05:06:19.655Z,64.28
2022-09-13T05:06:51.235Z,64.10
2022-09-13T05:07:22.819Z,64.00
2022-09-13T05:07:55.662Z,63.75
2022-09-13T05:08:27.474Z,64.70
2022-09-13T05:08:59.328Z,63.90
2022-09-13T05:09:31.939Z,63.80
2022-09-13T05:10:03.851Z,63.97
2022-09-13T05:10:35.482Z,64.43
2022-09-13T05:11:08.475Z,64.15
2022-09-13T05:11:40.443Z,64.28
2022-09-13T05:12:13.233Z,63.70
2022-09-13T05:12:44.922Z,64.82
2022-09-13T05:13:16.499Z,63.70
2022-09-13T05:13:52.838Z,64.60
2022-09-13T05:14:25.462Z,64.35
2022-09-13T05:14:57.097Z,64.13
2022-09-13T05:15:28.719Z,64.65
2022-09-13T05:16:02.291Z,64.38
2022-09-13T05:16:34.035Z,64.15
2022-09-13T05:17:05.698Z,64.55
2022-09-13T05:17:38.271Z,64.03
2022-09-13T05:18:11.241Z,64.10
2022-09-13T05:18:45.236Z,64.03
2022-09-13T05:19:18.104Z,63.67
2022-09-13T05:19:49.747Z,64.57
2022-09-13T05:20:21.511Z,64.47
2022-09-13T05:20:55.088Z,63.95
2022-09-13T05:21:27.821Z,64.10
2022-09-13T05:21:59.437Z,64.22
2022-09-13T05:22:32.170Z,63.60
2022-09-13T05:23:03.750Z,63.63
2022-09-13T05:23:35.443Z,63.70
2022-09-13T05:24:08.294Z,64.68
2022-09-13T05:24:40.008Z,64.07
2022-09-13T05:25:11.699Z,63.78
2022-09-13T05:25:44.285Z,64.10
2022-09-13T05:26:15.933Z,63.60
2022-09-13T05:26:48.126Z,64.45
2022-09-13T05:27:20.782Z,64.32
2022-09-13T05:27:52.453Z,64.10
2022-09-13T05:28:24.146Z,64.15
2022-09-13T05:28:56.717Z,64.10
2022-09-13T05:29:28.318Z,64.10
2022-09-13T05:29:59.906Z,63.60
2022-09-13T05:30:32.487Z,64.05
2022-09-13T05:31:05.609Z,64.05
2022-09-13T05:31:40.078Z,63.95
2022-09-13T05:32:11.829Z,63.53
2022-09-13T05:32:43.428Z,64.53
2022-09-13T05:33:17.374Z,63.55
2022-09-13T05:33:52.555Z,63.63
2022-09-13T05:34:25.832Z,63.72
2022-09-13T05:34:57.545Z,63.45
2022-09-13T05:35:29.201Z,63.92
2022-09-13T05:36:01.929Z,64.05
2022-09-13T05:36:33.585Z,64.72
2022-09-13T05:37:05.552Z,64.30
2022-09-13T05:37:38.160Z,63.78
2022-09-13T05:38:09.841Z,64.05
2022-09-13T05:38:41.446Z,64.43
2022-09-13T05:39:43.647Z,64.22
2022-09-13T05:40:11.627Z,64.07
2022-09-13T05:40:45.275Z,64.30
2022-09-13T05:41:16.933Z,64.50
2022-09-13T05:42:09.767Z,64.53
2022-09-13T05:42:44.792Z,64.00
2022-09-13T05:43:17.963Z,64.45
2022-09-13T05:43:59.403Z,64.30
2022-09-13T05:44:34.785Z,64.40
2022-09-13T05:45:07.130Z,65.00
2022-09-13T05:45:38.789Z,64.20
2022-09-13T05:46:12.766Z,65.03
2022-09-13T05:46:46.561Z,64.97
2022-09-13T05:47:19.195Z,64.40
2022-09-13T05:47:51.350Z,65.05
2022-09-13T05:48:24.647Z,64.32
2022-09-13T05:48:58.967Z,64.32
2022-09-13T05:49:30.882Z,65.13
2022-09-13T05:50:10.455Z,64.55
2022-09-13T05:50:57.820Z,64.70
2022-09-13T05:51:30.111Z,65.40
2022-09-13T05:52:02.881Z,64.72
2022-09-13T05:52:34.569Z,64.47
2022-09-13T05:53:06.254Z,64.78
2022-09-13T05:53:41.518Z,64.28
2022-09-13T05:54:13.203Z,65.20
2022-09-13T05:54:44.865Z,64.80
2022-09-13T05:55:18.285Z,64.93
2022-09-13T05:55:49.957Z,64.78
2022-09-13T05:56:22.385Z,65.00
2022-09-13T05:56:57.486Z,64.70
2022-09-13T05:57:29.333Z,64.45
2022-09-13T05:58:04.098Z,65.03
2022-09-13T05:58:40.138Z,65.00
2022-09-13T05:59:12.675Z,64.65
2022-09-13T05:59:44.377Z,64.13
2022-09-13T06:00:18.463Z,64.60
2022-09-13T06:00:52.790Z,65.03
2022-09-13T06:01:27.383Z,64.65
2022-09-13T06:01:59.166Z,64.45
2022-09-13T06:02:32.419Z,64.68
2022-09-13T06:03:07.981Z,63.88
2022-09-13T06:03:41.008Z,65.03
2022-09-13T06:04:14.559Z,64.68
2022-09-13T06:04:46.647Z,64.80
2022-09-13T06:05:18.601Z,64.05
2022-09-13T06:05:52.003Z,64.97
2022-09-13T06:06:24.247Z,64.80
2022-09-13T06:06:55.880Z,65.40
2022-09-13T06:07:28.647Z,64.77
2022-09-13T06:08:00.321Z,64.80
2022-09-13T06:08:33.273Z,64.68
2022-09-13T06:09:08.642Z,65.30
2022-09-13T06:09:40.279Z,64.65
2022-09-13T06:10:12.034Z,64.38
2022-09-13T06:10:44.710Z,64.55
2022-09-13T06:11:16.284Z,64.57
2022-09-13T06:11:47.889Z,64.28
2022-09-13T06:12:21.726Z,64.30
2022-09-13T06:12:53.353Z,64.75
2022-09-13T06:13:26.333Z,65.18
2022-09-13T06:14:00.350Z,64.65
2022-09-13T06:14:33.048Z,64.82
2022-09-13T06:15:04.945Z,65.03
2022-09-13T06:15:39.041Z,64.40
2022-09-13T06:16:16.182Z,65.10
2022-09-13T06:16:47.956Z,64.68
2022-09-13T06:17:19.577Z,64.15
2022-09-13T06:17:52.316Z,64.43
2022-09-13T06:18:24.831Z,64.35
2022-09-13T06:18:59.031Z,65.22
2022-09-13T06:19:30.662Z,64.85
2022-09-13T06:20:02.665Z,65.10
2022-09-13T06:20:35.224Z,65.68
2022-09-13T06:21:08.081Z,64.72
2022-09-13T06:21:40.691Z,65.03
2022-09-13T06:22:12.355Z,64.78
2022-09-13T06:22:43.941Z,64.72
2022-09-13T06:23:16.790Z,64.97
2022-09-13T06:23:49.514Z,65.18
2022-09-13T06:24:22.138Z,65.65
2022-09-13T06:24:53.824Z,65.32
2022-09-13T06:25:25.464Z,64.95
2022-09-13T06:26:08.013Z,65.13
2022-09-13T06:26:39.712Z,65.22
2022-09-13T06:27:11.495Z,65.07
2022-09-13T06:27:44.121Z,65.18
2022-09-13T06:28:19.887Z,65.57
2022-09-13T06:28:53.784Z,65.10
2022-09-13T06:29:27.639Z,65.00
2022-09-13T06:29:59.239Z,65.75
2022-09-13T06:30:30.969Z,64.93
2022-09-13T06:31:06.771Z,65.25
2022-09-13T06:31:43.679Z,64.75
2022-09-13T06:32:15.578Z,64.50
2022-09-13T06:32:48.187Z,65.68
2022-09-13T06:33:19.808Z,65.55
2022-09-13T06:33:55.372Z,65.50
2022-09-13T06:34:31.251Z,65.68
2022-09-13T06:35:03.256Z,64.85
2022-09-13T06:35:35.958Z,64.63
2022-09-13T06:36:09.305Z,65.68
2022-09-13T06:36:41.237Z,65.68
2022-09-13T06:37:14.229Z,64.63
2022-09-13T06:37:45.870Z,65.10
2022-09-13T06:38:19.310Z,64.43
2022-09-13T06:38:52.213Z,65.25
2022-09-13T06:39:24.017Z,65.15
2022-09-13T06:39:55.749Z,65.18
2022-09-13T06:40:31.184Z,64.80
2022-09-13T06:41:18.595Z,64.85
2022-09-13T06:41:57.841Z,65.07
2022-09-13T06:42:43.808Z,64.57
2022-09-13T06:43:15.830Z,64.88
2022-09-13T06:43:53.272Z,65.25
2022-09-13T06:44:25.242Z,64.82
2022-09-13T06:44:57.877Z,64.35
2022-09-13T06:45:29.866Z,65.10
2022-09-13T06:46:02.111Z,64.97
2022-09-13T06:46:35.684Z,63.92
2022-09-13T06:47:07.459Z,64.65
2022-09-13T06:47:39.081Z,65.22
2022-09-13T06:48:11.691Z,65.60
2022-09-13T06:48:43.851Z,64.53
2022-09-13T06:49:16.536Z,64.75
2022-09-13T06:49:49.588Z,65.13
2022-09-13T06:50:21.238Z,65.65
2022-09-13T06:50:53.860Z,64.68
2022-09-13T06:51:25.929Z,64.57
2022-09-13T06:51:57.603Z,64.63
2022-09-13T06:52:30.277Z,64.82
2022-09-13T06:53:02.048Z,64.68
2022-09-13T06:53:34.792Z,64.50
2022-09-13T06:54:07.374Z,64.40
2022-09-13T06:54:39.466Z,64.43
2022-09-13T06:55:12.861Z,64.72
2022-09-13T06:55:45.576Z,64.40
2022-09-13T06:56:19.302Z,65.10
2022-09-13T06:56:50.910Z,65.45
2022-09-13T06:57:23.573Z,65.45
2022-09-13T06:57:55.225Z,64.65
2022-09-13T06:58:28.115Z,65.28
2022-09-13T06:59:01.720Z,64.68
2022-09-13T06:59:34.952Z,64.93
2022-09-13T07:00:07.363Z,64.30
2022-09-13T07:00:40.115Z,64.82
2022-09-13T07:01:12.819Z,64.43
2022-09-13T07:01:45.131Z,65.07
2022-09-13T07:02:17.832Z,64.47
2022-09-13T07:02:50.838Z,64.43
2022-09-13T07:03:22.516Z,64.03
2022-09-13T07:03:55.988Z,64.65
2022-09-13T07:04:31.520Z,64.65
2022-09-13T07:05:05.818Z,64.40
2022-09-13T07:05:37.514Z,64.15
2022-09-13T07:06:10.377Z,64.53
2022-09-13T07:06:43.737Z,64.55
2022-09-13T07:07:15.455Z,65.13
2022-09-13T07:07:48.418Z,64.43
2022-09-13T07:08:20.053Z,64.38
2022-09-13T07:08:52.119Z,65.40
2022-09-13T07:09:25.098Z,64.72
2022-09-13T07:09:56.764Z,64.65
2022-09-13T07:10:28.468Z,64.60
2022-09-13T07:11:00.304Z,65.00
2022-09-13T07:11:34.188Z,64.13
2022-09-13T07:12:06.405Z,64.57
2022-09-13T07:12:40.204Z,64.22
2022-09-13T07:13:12.868Z,64.78
2022-09-13T07:13:47.766Z,64.45
2022-09-13T07:14:21.737Z,64.78
2022-09-13T07:14:53.857Z,64.40
2022-09-13T07:15:26.436Z,64.95
2022-09-13T07:16:00.955Z,64.28
2022-09-13T07:16:34.012Z,65.32
2022-09-13T07:17:06.607Z,64.05
2022-09-13T07:17:38.335Z,64.50
2022-09-13T07:18:09.920Z,64.55
2022-09-13T07:18:42.577Z,64.68
2022-09-13T07:19:15.516Z,64.72